sensor_id;sensor_type;location;lat;lon;timestamp;temperature;humidity
20833;DHT22;56075;51.264;7.150;2023-05-29T00:01:09;15.20;95.90
20833;DHT22;56075;51.264;7.150;2023-05-29T00:03:41;15.70;96.30
20833;DHT22;56075;51.264;7.150;2023-05-29T00:06:12;16.00;96.40
20833;DHT22;56075;51.264;7.150;2023-05-29T00:08:44;15.80;96.50
20833;DHT22;56075;51.264;7.150;2023-05-29T00:11:15;15.00;96.30
20833;DHT22;56075;51.264;7.150;2023-05-29T00:13:46;15.50;96.50
20833;DHT22;56075;51.264;7.150;2023-05-29T00:16:17;15.30;96.50
20833;DHT22;56075;51.264;7.150;2023-05-29T00:18:49;15.90;96.70
20833;DHT22;56075;51.264;7.150;2023-05-29T00:21:20;14.80;96.60
20833;DHT22;56075;51.264;7.150;2023-05-29T00:23:52;15.60;96.80
20833;DHT22;56075;51.264;7.150;2023-05-29T00:26:23;14.70;96.50
20833;DHT22;56075;51.264;7.150;2023-05-29T00:28:58;14.90;96.80
20833;DHT22;56075;51.264;7.150;2023-05-29T00:31:30;15.60;97.00
20833;DHT22;56075;51.264;7.150;2023-05-29T00:34:01;15.80;97.20
20833;DHT22;56075;51.264;7.150;2023-05-29T00:36:34;14.50;96.70
20833;DHT22;56075;51.264;7.150;2023-05-29T00:39:06;14.60;97.40
20833;DHT22;56075;51.264;7.150;2023-05-29T00:41:37;16.10;97.50
20833;DHT22;56075;51.264;7.150;2023-05-29T00:44:08;14.40;97.10
20833;DHT22;56075;51.264;7.150;2023-05-29T00:46:39;14.40;97.20
20833;DHT22;56075;51.264;7.150;2023-05-29T00:49:10;14.40;97.40
20833;DHT22;56075;51.264;7.150;2023-05-29T00:51:43;14.30;97.50
20833;DHT22;56075;51.264;7.150;2023-05-29T00:54:20;15.60;98.00
20833;DHT22;56075;51.264;7.150;2023-05-29T00:56:52;14.30;98.00
20833;DHT22;56075;51.264;7.150;2023-05-29T00:59:26;14.30;97.90
20833;DHT22;56075;51.264;7.150;2023-05-29T01:01:59;14.10;97.80
20833;DHT22;56075;51.264;7.150;2023-05-29T01:04:31;14.10;98.20
20833;DHT22;56075;51.264;7.150;2023-05-29T01:07:06;15.30;98.20
20833;DHT22;56075;51.264;7.150;2023-05-29T01:09:38;13.80;98.30
20833;DHT22;56075;51.264;7.150;2023-05-29T01:18:07;13.60;98.60
20833;DHT22;56075;51.264;7.150;2023-05-29T01:20:37;13.90;98.90
20833;DHT22;56075;51.264;7.150;2023-05-29T01:29:21;13.70;99.10
20833;DHT22;56075;51.264;7.150;2023-05-29T01:31:54;14.70;99.60
20833;DHT22;56075;51.264;7.150;2023-05-29T01:34:26;13.40;99.50
20833;DHT22;56075;51.264;7.150;2023-05-29T01:36:58;13.40;99.50
20833;DHT22;56075;51.264;7.150;2023-05-29T01:39:32;13.90;99.70
20833;DHT22;56075;51.264;7.150;2023-05-29T01:42:04;13.40;99.90
20833;DHT22;56075;51.264;7.150;2023-05-29T01:44:39;13.30;99.90
20833;DHT22;56075;51.264;7.150;2023-05-29T01:47:12;14.40;99.90
20833;DHT22;56075;51.264;7.150;2023-05-29T01:49:43;13.20;99.90
20833;DHT22;56075;51.264;7.150;2023-05-29T01:52:15;13.20;99.90
20833;DHT22;56075;51.264;7.150;2023-05-29T01:54:46;14.40;99.90
20833;DHT22;56075;51.264;7.150;2023-05-29T01:57:17;14.40;99.90
20833;DHT22;56075;51.264;7.150;2023-05-29T01:59:49;13.00;99.90
20833;DHT22;56075;51.264;7.150;2023-05-29T02:02:22;13.00;99.90
20833;DHT22;56075;51.264;7.150;2023-05-29T02:04:53;13.30;99.90
20833;DHT22;56075;51.264;7.150;2023-05-29T02:07:25;12.90;99.90
20833;DHT22;56075;51.264;7.150;2023-05-29T02:09:56;12.80;99.90
20833;DHT22;56075;51.264;7.150;2023-05-29T02:12:27;13.90;99.90
20833;DHT22;56075;51.264;7.150;2023-05-29T02:14:58;13.90;99.90
20833;DHT22;56075;51.264;7.150;2023-05-29T02:17:30;12.50;99.90
20833;DHT22;56075;51.264;7.150;2023-05-29T02:20:02;12.80;99.90
20833;DHT22;56075;51.264;7.150;2023-05-29T02:22:35;12.50;99.90
20833;DHT22;56075;51.264;7.150;2023-05-29T02:25:06;12.40;99.90
20833;DHT22;56075;51.264;7.150;2023-05-29T02:27:38;12.30;99.90
20833;DHT22;56075;51.264;7.150;2023-05-29T02:30:11;12.50;99.90
20833;DHT22;56075;51.264;7.150;2023-05-29T02:32:42;12.20;99.90
20833;DHT22;56075;51.264;7.150;2023-05-29T02:35:13;12.40;99.90
20833;DHT22;56075;51.264;7.150;2023-05-29T02:37:46;12.30;99.90
20833;DHT22;56075;51.264;7.150;2023-05-29T02:40:20;12.10;99.90
20833;DHT22;56075;51.264;7.150;2023-05-29T02:42:52;12.00;99.90
20833;DHT22;56075;51.264;7.150;2023-05-29T02:45:23;13.10;99.90
20833;DHT22;56075;51.264;7.150;2023-05-29T02:47:54;12.10;99.90
20833;DHT22;56075;51.264;7.150;2023-05-29T02:50:25;11.90;99.90
20833;DHT22;56075;51.264;7.150;2023-05-29T02:52:56;11.90;99.90
20833;DHT22;56075;51.264;7.150;2023-05-29T02:55:27;12.00;99.90
20833;DHT22;56075;51.264;7.150;2023-05-29T02:57:59;11.90;99.90
20833;DHT22;56075;51.264;7.150;2023-05-29T03:00:34;11.90;99.90
20833;DHT22;56075;51.264;7.150;2023-05-29T03:03:05;11.90;99.90
20833;DHT22;56075;51.264;7.150;2023-05-29T03:05:37;11.90;99.90
20833;DHT22;56075;51.264;7.150;2023-05-29T03:08:08;11.80;99.90
20833;DHT22;56075;51.264;7.150;2023-05-29T03:10:39;11.70;99.90
20833;DHT22;56075;51.264;7.150;2023-05-29T03:13:10;11.80;99.90
20833;DHT22;56075;51.264;7.150;2023-05-29T03:15:46;11.60;99.90
20833;DHT22;56075;51.264;7.150;2023-05-29T03:18:18;11.60;99.90
20833;DHT22;56075;51.264;7.150;2023-05-29T03:20:49;11.50;99.90
20833;DHT22;56075;51.264;7.150;2023-05-29T03:23:21;11.70;99.90
20833;DHT22;56075;51.264;7.150;2023-05-29T03:25:52;11.60;99.90
20833;DHT22;56075;51.264;7.150;2023-05-29T03:28:23;11.70;99.90
20833;DHT22;56075;51.264;7.150;2023-05-29T03:30:55;11.50;99.90
20833;DHT22;56075;51.264;7.150;2023-05-29T03:36:16;11.50;99.90
20833;DHT22;56075;51.264;7.150;2023-05-29T03:38:50;11.50;99.90
20833;DHT22;56075;51.264;7.150;2023-05-29T03:43:57;11.60;99.90
20833;DHT22;56075;51.264;7.150;2023-05-29T03:46:31;11.60;99.90
20833;DHT22;56075;51.264;7.150;2023-05-29T03:49:04;11.20;99.90
20833;DHT22;56075;51.264;7.150;2023-05-29T03:51:36;11.50;99.90
20833;DHT22;56075;51.264;7.150;2023-05-29T03:54:08;11.50;99.90
20833;DHT22;56075;51.264;7.150;2023-05-29T03:56:40;11.50;99.90
20833;DHT22;56075;51.264;7.150;2023-05-29T03:59:12;11.60;99.90
20833;DHT22;56075;51.264;7.150;2023-05-29T04:01:44;11.10;99.90
20833;DHT22;56075;51.264;7.150;2023-05-29T04:04:15;11.50;99.90
20833;DHT22;56075;51.264;7.150;2023-05-29T04:06:46;11.40;99.90
20833;DHT22;56075;51.264;7.150;2023-05-29T04:09:17;11.40;99.90
20833;DHT22;56075;51.264;7.150;2023-05-29T04:11:49;11.30;99.90
20833;DHT22;56075;51.264;7.150;2023-05-29T04:14:22;11.50;99.90
20833;DHT22;56075;51.264;7.150;2023-05-29T04:16:54;11.50;99.90
20833;DHT22;56075;51.264;7.150;2023-05-29T04:19:25;11.60;99.90
20833;DHT22;56075;51.264;7.150;2023-05-29T04:21:56;11.40;99.90
20833;DHT22;56075;51.264;7.150;2023-05-29T04:24:27;11.30;99.90
20833;DHT22;56075;51.264;7.150;2023-05-29T04:26:58;11.40;99.90
20833;DHT22;56075;51.264;7.150;2023-05-29T04:29:32;11.30;99.90
20833;DHT22;56075;51.264;7.150;2023-05-29T04:32:05;11.40;99.90
20833;DHT22;56075;51.264;7.150;2023-05-29T04:34:37;11.30;99.90
20833;DHT22;56075;51.264;7.150;2023-05-29T04:37:15;11.00;99.90
20833;DHT22;56075;51.264;7.150;2023-05-29T04:39:46;11.40;99.90
20833;DHT22;56075;51.264;7.150;2023-05-29T04:42:25;11.30;99.90
20833;DHT22;56075;51.264;7.150;2023-05-29T04:44:56;11.40;99.90
20833;DHT22;56075;51.264;7.150;2023-05-29T04:47:27;11.30;99.90
20833;DHT22;56075;51.264;7.150;2023-05-29T04:49:59;11.40;99.90
20833;DHT22;56075;51.264;7.150;2023-05-29T04:52:32;11.50;99.90
20833;DHT22;56075;51.264;7.150;2023-05-29T04:55:04;11.30;99.90
20833;DHT22;56075;51.264;7.150;2023-05-29T04:57:36;11.30;99.90
20833;DHT22;56075;51.264;7.150;2023-05-29T05:00:07;11.30;99.90
20833;DHT22;56075;51.264;7.150;2023-05-29T05:02:45;11.30;99.90
20833;DHT22;56075;51.264;7.150;2023-05-29T05:05:18;11.40;99.90
20833;DHT22;56075;51.264;7.150;2023-05-29T05:07:49;11.40;99.90
20833;DHT22;56075;51.264;7.150;2023-05-29T05:10:20;11.50;99.90
20833;DHT22;56075;51.264;7.150;2023-05-29T05:12:52;11.40;99.90
20833;DHT22;56075;51.264;7.150;2023-05-29T05:15:25;11.70;99.90
20833;DHT22;56075;51.264;7.150;2023-05-29T05:17:56;11.50;99.90
20833;DHT22;56075;51.264;7.150;2023-05-29T05:20:28;11.50;99.90
20833;DHT22;56075;51.264;7.150;2023-05-29T05:23:03;11.60;99.90
20833;DHT22;56075;51.264;7.150;2023-05-29T05:25:34;11.60;99.90
20833;DHT22;56075;51.264;7.150;2023-05-29T05:28:07;11.70;99.90
20833;DHT22;56075;51.264;7.150;2023-05-29T05:30:39;11.60;99.90
20833;DHT22;56075;51.264;7.150;2023-05-29T05:33:11;11.50;99.90
20833;DHT22;56075;51.264;7.150;2023-05-29T05:35:43;11.70;99.90
20833;DHT22;56075;51.264;7.150;2023-05-29T05:38:14;11.80;99.90
20833;DHT22;56075;51.264;7.150;2023-05-29T05:40:45;11.80;99.90
20833;DHT22;56075;51.264;7.150;2023-05-29T05:43:22;11.70;99.90
20833;DHT22;56075;51.264;7.150;2023-05-29T05:46:10;11.70;99.90
20833;DHT22;56075;51.264;7.150;2023-05-29T05:48:41;11.90;99.90
20833;DHT22;56075;51.264;7.150;2023-05-29T05:51:13;11.90;99.90
20833;DHT22;56075;51.264;7.150;2023-05-29T05:53:45;11.90;99.90
20833;DHT22;56075;51.264;7.150;2023-05-29T05:56:16;12.00;99.90
20833;DHT22;56075;51.264;7.150;2023-05-29T05:58:47;13.60;99.90
20833;DHT22;56075;51.264;7.150;2023-05-29T06:01:23;12.20;99.90
20833;DHT22;56075;51.264;7.150;2023-05-29T06:03:55;13.10;99.90
20833;DHT22;56075;51.264;7.150;2023-05-29T06:06:28;12.10;99.90
20833;DHT22;56075;51.264;7.150;2023-05-29T06:08:59;12.20;99.90
20833;DHT22;56075;51.264;7.150;2023-05-29T06:11:30;12.20;99.90
20833;DHT22;56075;51.264;7.150;2023-05-29T06:14:03;12.40;99.90
20833;DHT22;56075;51.264;7.150;2023-05-29T06:16:35;14.20;99.90
20833;DHT22;56075;51.264;7.150;2023-05-29T06:19:07;12.60;99.90
20833;DHT22;56075;51.264;7.150;2023-05-29T06:21:50;13.20;99.90
20833;DHT22;56075;51.264;7.150;2023-05-29T06:24:21;12.40;99.90
20833;DHT22;56075;51.264;7.150;2023-05-29T06:26:53;12.60;99.90
20833;DHT22;56075;51.264;7.150;2023-05-29T06:29:25;12.80;99.90
20833;DHT22;56075;51.264;7.150;2023-05-29T06:31:57;13.90;99.90
20833;DHT22;56075;51.264;7.150;2023-05-29T06:34:28;14.40;99.90
20833;DHT22;56075;51.264;7.150;2023-05-29T06:36:59;12.90;99.90
20833;DHT22;56075;51.264;7.150;2023-05-29T06:39:31;13.70;99.90
20833;DHT22;56075;51.264;7.150;2023-05-29T06:42:03;13.00;99.90
20833;DHT22;56075;51.264;7.150;2023-05-29T06:44:34;13.00;99.90
20833;DHT22;56075;51.264;7.150;2023-05-29T06:47:06;14.10;99.90
20833;DHT22;56075;51.264;7.150;2023-05-29T06:49:38;13.10;99.90
20833;DHT22;56075;51.264;7.150;2023-05-29T06:52:09;13.20;99.90
20833;DHT22;56075;51.264;7.150;2023-05-29T06:55:03;13.30;99.90
20833;DHT22;56075;51.264;7.150;2023-05-29T06:57:35;13.30;99.90
20833;DHT22;56075;51.264;7.150;2023-05-29T07:00:07;13.50;99.90
20833;DHT22;56075;51.264;7.150;2023-05-29T07:02:45;13.40;99.90
20833;DHT22;56075;51.264;7.150;2023-05-29T07:05:16;14.30;99.90
20833;DHT22;56075;51.264;7.150;2023-05-29T07:07:47;13.60;99.90
20833;DHT22;56075;51.264;7.150;2023-05-29T07:10:19;14.60;99.90
20833;DHT22;56075;51.264;7.150;2023-05-29T07:12:50;14.70;99.90
20833;DHT22;56075;51.264;7.150;2023-05-29T07:15:21;13.70;99.90
20833;DHT22;56075;51.264;7.150;2023-05-29T07:17:52;14.70;99.90
20833;DHT22;56075;51.264;7.150;2023-05-29T07:20:28;14.00;99.90
20833;DHT22;56075;51.264;7.150;2023-05-29T07:23:00;14.20;99.90
20833;DHT22;56075;51.264;7.150;2023-05-29T07:25:33;14.20;99.90
20833;DHT22;56075;51.264;7.150;2023-05-29T07:28:04;14.30;99.90
20833;DHT22;56075;51.264;7.150;2023-05-29T07:30:36;14.20;99.90
20833;DHT22;56075;51.264;7.150;2023-05-29T07:33:09;15.90;99.90
20833;DHT22;56075;51.264;7.150;2023-05-29T07:35:42;14.60;99.90
20833;DHT22;56075;51.264;7.150;2023-05-29T07:38:14;14.40;99.90
20833;DHT22;56075;51.264;7.150;2023-05-29T07:40:47;14.50;99.90
20833;DHT22;56075;51.264;7.150;2023-05-29T07:43:30;14.60;99.90
20833;DHT22;56075;51.264;7.150;2023-05-29T07:46:05;14.80;99.90
20833;DHT22;56075;51.264;7.150;2023-05-29T07:48:36;15.00;99.90
20833;DHT22;56075;51.264;7.150;2023-05-29T07:51:08;15.60;99.90
20833;DHT22;56075;51.264;7.150;2023-05-29T07:53:45;15.00;99.90
20833;DHT22;56075;51.264;7.150;2023-05-29T07:56:17;15.70;99.90
20833;DHT22;56075;51.264;7.150;2023-05-29T07:58:49;15.20;99.90
20833;DHT22;56075;51.264;7.150;2023-05-29T08:01:20;16.70;99.90
20833;DHT22;56075;51.264;7.150;2023-05-29T08:03:55;15.40;99.90
20833;DHT22;56075;51.264;7.150;2023-05-29T08:06:32;17.00;99.90
20833;DHT22;56075;51.264;7.150;2023-05-29T08:09:03;15.50;99.90
20833;DHT22;56075;51.264;7.150;2023-05-29T08:11:37;16.80;99.90
20833;DHT22;56075;51.264;7.150;2023-05-29T08:14:08;15.60;99.90
20833;DHT22;56075;51.264;7.150;2023-05-29T08:16:41;15.70;99.90
20833;DHT22;56075;51.264;7.150;2023-05-29T08:19:13;16.10;99.90
20833;DHT22;56075;51.264;7.150;2023-05-29T08:21:44;15.70;99.90
20833;DHT22;56075;51.264;7.150;2023-05-29T08:24:15;16.10;99.90
20833;DHT22;56075;51.264;7.150;2023-05-29T08:26:46;16.00;99.80
20833;DHT22;56075;51.264;7.150;2023-05-29T08:29:17;17.30;99.90
20833;DHT22;56075;51.264;7.150;2023-05-29T08:31:48;16.10;99.70
20833;DHT22;56075;51.264;7.150;2023-05-29T08:34:20;16.20;99.40
20833;DHT22;56075;51.264;7.150;2023-05-29T08:36:51;16.70;99.60
20833;DHT22;56075;51.264;7.150;2023-05-29T08:39:22;16.50;99.40
20833;DHT22;56075;51.264;7.150;2023-05-29T08:42:04;16.20;99.10
20833;DHT22;56075;51.264;7.150;2023-05-29T08:44:39;16.30;98.90
20833;DHT22;56075;51.264;7.150;2023-05-29T08:47:11;16.40;99.10
20833;DHT22;56075;51.264;7.150;2023-05-29T08:49:53;16.60;99.30
20833;DHT22;56075;51.264;7.150;2023-05-29T08:52:24;16.60;98.90
20833;DHT22;56075;51.264;7.150;2023-05-29T08:54:56;17.00;98.70
20833;DHT22;56075;51.264;7.150;2023-05-29T08:57:31;17.00;98.70
20833;DHT22;56075;51.264;7.150;2023-05-29T09:00:03;17.90;98.90
20833;DHT22;56075;51.264;7.150;2023-05-29T09:02:43;16.90;98.40
20833;DHT22;56075;51.264;7.150;2023-05-29T09:05:15;16.80;97.90
20833;DHT22;56075;51.264;7.150;2023-05-29T09:07:46;17.00;98.10
20833;DHT22;56075;51.264;7.150;2023-05-29T09:10:17;18.10;98.40
20833;DHT22;56075;51.264;7.150;2023-05-29T09:12:49;17.00;98.00
20833;DHT22;56075;51.264;7.150;2023-05-29T09:15:22;17.10;98.00
20833;DHT22;56075;51.264;7.150;2023-05-29T09:17:56;17.20;97.90
20833;DHT22;56075;51.264;7.150;2023-05-29T09:20:30;17.10;97.80
20833;DHT22;56075;51.264;7.150;2023-05-29T09:23:07;17.30;97.60
20833;DHT22;56075;51.264;7.150;2023-05-29T09:25:42;17.50;97.70
20833;DHT22;56075;51.264;7.150;2023-05-29T09:28:13;17.50;97.40
20833;DHT22;56075;51.264;7.150;2023-05-29T09:30:46;17.40;97.30
20833;DHT22;56075;51.264;7.150;2023-05-29T09:33:20;17.80;97.30
20833;DHT22;56075;51.264;7.150;2023-05-29T09:35:51;17.80;97.20
20833;DHT22;56075;51.264;7.150;2023-05-29T09:38:23;18.90;97.30
20833;DHT22;56075;51.264;7.150;2023-05-29T09:40:54;17.90;96.90
20833;DHT22;56075;51.264;7.150;2023-05-29T09:43:30;17.80;96.80
20833;DHT22;56075;51.264;7.150;2023-05-29T09:46:01;17.90;96.80
20833;DHT22;56075;51.264;7.150;2023-05-29T09:48:37;18.70;97.00
20833;DHT22;56075;51.264;7.150;2023-05-29T09:51:19;17.70;96.50
20833;DHT22;56075;51.264;7.150;2023-05-29T09:53:52;18.70;97.10
20833;DHT22;56075;51.264;7.150;2023-05-29T09:56:25;18.00;96.80
20833;DHT22;56075;51.264;7.150;2023-05-29T09:58:57;17.90;96.60
20833;DHT22;56075;51.264;7.150;2023-05-29T10:01:29;18.70;96.70
20833;DHT22;56075;51.264;7.150;2023-05-29T10:04:00;18.30;96.40
20833;DHT22;56075;51.264;7.150;2023-05-29T10:06:36;18.50;96.50
20833;DHT22;56075;51.264;7.150;2023-05-29T10:09:09;18.80;96.50
20833;DHT22;56075;51.264;7.150;2023-05-29T10:11:47;18.30;96.10
20833;DHT22;56075;51.264;7.150;2023-05-29T10:14:19;19.00;96.20
20833;DHT22;56075;51.264;7.150;2023-05-29T10:16:52;18.50;96.00
20833;DHT22;56075;51.264;7.150;2023-05-29T10:19:30;18.40;95.80
20833;DHT22;56075;51.264;7.150;2023-05-29T10:22:04;18.60;95.70
20833;DHT22;56075;51.264;7.150;2023-05-29T10:24:37;18.60;95.60
20833;DHT22;56075;51.264;7.150;2023-05-29T10:27:08;19.40;95.70
20833;DHT22;56075;51.264;7.150;2023-05-29T10:29:54;18.70;95.50
20833;DHT22;56075;51.264;7.150;2023-05-29T10:32:36;18.90;95.30
20833;DHT22;56075;51.264;7.150;2023-05-29T10:37:52;18.80;94.70
20833;DHT22;56075;51.264;7.150;2023-05-29T10:40:26;18.80;94.60
20833;DHT22;56075;51.264;7.150;2023-05-29T10:42:57;19.90;95.00
20833;DHT22;56075;51.264;7.150;2023-05-29T10:50:42;19.40;94.30
20833;DHT22;56075;51.264;7.150;2023-05-29T10:53:17;19.40;94.10
20833;DHT22;56075;51.264;7.150;2023-05-29T10:55:50;19.80;93.90
20833;DHT22;56075;51.264;7.150;2023-05-29T10:58:23;19.90;93.70
20833;DHT22;56075;51.264;7.150;2023-05-29T11:00:55;19.90;93.50
20833;DHT22;56075;51.264;7.150;2023-05-29T11:03:31;20.00;93.30
20833;DHT22;56075;51.264;7.150;2023-05-29T11:06:05;20.90;93.30
20833;DHT22;56075;51.264;7.150;2023-05-29T11:08:44;20.10;92.90
20833;DHT22;56075;51.264;7.150;2023-05-29T11:14:03;20.50;92.40
20833;DHT22;56075;51.264;7.150;2023-05-29T11:16:36;20.60;92.40
20833;DHT22;56075;51.264;7.150;2023-05-29T11:19:09;20.80;92.20
20833;DHT22;56075;51.264;7.150;2023-05-29T11:21:57;21.10;92.10
20833;DHT22;56075;51.264;7.150;2023-05-29T11:24:33;20.90;91.60
20833;DHT22;56075;51.264;7.150;2023-05-29T11:27:07;21.10;91.70
20833;DHT22;56075;51.264;7.150;2023-05-29T11:29:39;21.30;91.40
20833;DHT22;56075;51.264;7.150;2023-05-29T11:32:14;21.50;91.30
20833;DHT22;56075;51.264;7.150;2023-05-29T11:34:48;21.70;91.00
20833;DHT22;56075;51.264;7.150;2023-05-29T11:37:20;21.70;90.80
20833;DHT22;56075;51.264;7.150;2023-05-29T11:39:53;22.00;90.70
20833;DHT22;56075;51.264;7.150;2023-05-29T11:42:24;21.80;90.20
20833;DHT22;56075;51.264;7.150;2023-05-29T11:44:55;22.00;90.00
20833;DHT22;56075;51.264;7.150;2023-05-29T11:47:26;22.20;89.40
20833;DHT22;56075;51.264;7.150;2023-05-29T11:49:58;22.40;88.60
20833;DHT22;56075;51.264;7.150;2023-05-29T11:52:29;22.30;88.20
20833;DHT22;56075;51.264;7.150;2023-05-29T11:55:06;22.50;88.20
20833;DHT22;56075;51.264;7.150;2023-05-29T11:57:38;22.70;87.30
20833;DHT22;56075;51.264;7.150;2023-05-29T12:00:13;22.90;86.70
20833;DHT22;56075;51.264;7.150;2023-05-29T12:02:45;23.10;86.00
20833;DHT22;56075;51.264;7.150;2023-05-29T12:05:20;23.20;85.20
20833;DHT22;56075;51.264;7.150;2023-05-29T12:07:54;23.70;85.00
20833;DHT22;56075;51.264;7.150;2023-05-29T12:10:28;23.80;84.10
20833;DHT22;56075;51.264;7.150;2023-05-29T12:13:00;23.80;83.90
20833;DHT22;56075;51.264;7.150;2023-05-29T12:15:39;23.80;82.50
20833;DHT22;56075;51.264;7.150;2023-05-29T12:18:10;24.10;82.80
20833;DHT22;56075;51.264;7.150;2023-05-29T12:20:46;24.20;82.30
20833;DHT22;56075;51.264;7.150;2023-05-29T12:23:18;24.30;81.60
20833;DHT22;56075;51.264;7.150;2023-05-29T12:25:54;24.50;81.20
20833;DHT22;56075;51.264;7.150;2023-05-29T12:28:25;24.50;80.60
20833;DHT22;56075;51.264;7.150;2023-05-29T12:30:59;24.80;79.70
20833;DHT22;56075;51.264;7.150;2023-05-29T12:33:34;26.00;79.10
20833;DHT22;56075;51.264;7.150;2023-05-29T12:36:07;25.10;78.00
20833;DHT22;56075;51.264;7.150;2023-05-29T12:43:55;25.50;76.50
20833;DHT22;56075;51.264;7.150;2023-05-29T12:46:28;25.80;76.40
20833;DHT22;56075;51.264;7.150;2023-05-29T12:49:12;26.00;75.30
20833;DHT22;56075;51.264;7.150;2023-05-29T12:51:45;26.20;74.80
20833;DHT22;56075;51.264;7.150;2023-05-29T12:54:17;26.30;74.20
20833;DHT22;56075;51.264;7.150;2023-05-29T12:56:48;26.30;73.50
20833;DHT22;56075;51.264;7.150;2023-05-29T12:59:21;26.40;73.90
20833;DHT22;56075;51.264;7.150;2023-05-29T13:01:53;26.60;73.00
20833;DHT22;56075;51.264;7.150;2023-05-29T13:04:24;26.60;72.50
20833;DHT22;56075;51.264;7.150;2023-05-29T13:06:55;26.60;72.20
20833;DHT22;56075;51.264;7.150;2023-05-29T13:09:26;26.70;72.20
20833;DHT22;56075;51.264;7.150;2023-05-29T13:11:57;26.70;71.10
20833;DHT22;56075;51.264;7.150;2023-05-29T13:14:28;27.00;70.70
20833;DHT22;56075;51.264;7.150;2023-05-29T13:17:00;27.20;70.00
20833;DHT22;56075;51.264;7.150;2023-05-29T13:19:32;27.40;69.00
20833;DHT22;56075;51.264;7.150;2023-05-29T13:22:04;27.60;69.00
20833;DHT22;56075;51.264;7.150;2023-05-29T13:24:35;27.50;68.60
20833;DHT22;56075;51.264;7.150;2023-05-29T13:27:07;27.50;67.90
20833;DHT22;56075;51.264;7.150;2023-05-29T13:29:38;27.90;67.70
20833;DHT22;56075;51.264;7.150;2023-05-29T13:32:09;28.00;67.10
20833;DHT22;56075;51.264;7.150;2023-05-29T13:34:42;28.00;67.10
20833;DHT22;56075;51.264;7.150;2023-05-29T13:37:13;27.80;67.20
20833;DHT22;56075;51.264;7.150;2023-05-29T13:39:44;27.90;67.00
20833;DHT22;56075;51.264;7.150;2023-05-29T13:42:15;27.80;66.40
20833;DHT22;56075;51.264;7.150;2023-05-29T13:44:47;27.90;66.90
20833;DHT22;56075;51.264;7.150;2023-05-29T13:47:18;27.70;67.10
20833;DHT22;56075;51.264;7.150;2023-05-29T13:49:51;27.60;66.70
20833;DHT22;56075;51.264;7.150;2023-05-29T13:52:23;27.60;67.00
20833;DHT22;56075;51.264;7.150;2023-05-29T13:54:54;27.80;66.70
20833;DHT22;56075;51.264;7.150;2023-05-29T13:57:25;28.10;66.50
20833;DHT22;56075;51.264;7.150;2023-05-29T13:59:56;27.90;66.20
20833;DHT22;56075;51.264;7.150;2023-05-29T14:02:28;27.60;66.50
20833;DHT22;56075;51.264;7.150;2023-05-29T14:05:00;27.60;66.40
20833;DHT22;56075;51.264;7.150;2023-05-29T14:07:56;27.60;65.20
20833;DHT22;56075;51.264;7.150;2023-05-29T14:10:27;27.60;65.80
20833;DHT22;56075;51.264;7.150;2023-05-29T14:12:59;27.70;66.00
20833;DHT22;56075;51.264;7.150;2023-05-29T14:15:30;27.70;65.50
20833;DHT22;56075;51.264;7.150;2023-05-29T14:18:01;25.30;63.30
20833;DHT22;56075;51.264;7.150;2023-05-29T14:20:33;27.80;65.50
20833;DHT22;56075;51.264;7.150;2023-05-29T14:23:04;28.00;64.60
20833;DHT22;56075;51.264;7.150;2023-05-29T14:25:36;28.20;64.20
20833;DHT22;56075;51.264;7.150;2023-05-29T14:28:07;28.60;63.70
20833;DHT22;56075;51.264;7.150;2023-05-29T14:30:38;28.70;62.80
20833;DHT22;56075;51.264;7.150;2023-05-29T14:33:09;28.70;62.50
20833;DHT22;56075;51.264;7.150;2023-05-29T14:35:41;28.80;62.40
20833;DHT22;56075;51.264;7.150;2023-05-29T14:38:12;29.00;62.20
20833;DHT22;56075;51.264;7.150;2023-05-29T14:40:43;28.80;61.80
20833;DHT22;56075;51.264;7.150;2023-05-29T14:43:14;28.80;62.50
20833;DHT22;56075;51.264;7.150;2023-05-29T14:45:46;28.60;62.30
20833;DHT22;56075;51.264;7.150;2023-05-29T14:48:17;28.40;62.00
20833;DHT22;56075;51.264;7.150;2023-05-29T14:50:48;28.00;62.60
20833;DHT22;56075;51.264;7.150;2023-05-29T14:53:19;27.70;63.20
20833;DHT22;56075;51.264;7.150;2023-05-29T14:55:52;27.50;64.00
20833;DHT22;56075;51.264;7.150;2023-05-29T14:58:23;27.30;64.00
20833;DHT22;56075;51.264;7.150;2023-05-29T15:00:54;27.30;63.90
20833;DHT22;56075;51.264;7.150;2023-05-29T15:03:26;27.50;64.00
20833;DHT22;56075;51.264;7.150;2023-05-29T15:05:57;27.60;64.00
20833;DHT22;56075;51.264;7.150;2023-05-29T15:08:29;27.60;63.50
20833;DHT22;56075;51.264;7.150;2023-05-29T15:11:05;27.40;64.10
20833;DHT22;56075;51.264;7.150;2023-05-29T15:13:37;27.20;64.00
20833;DHT22;56075;51.264;7.150;2023-05-29T15:16:08;27.10;63.80
20833;DHT22;56075;51.264;7.150;2023-05-29T15:18:39;27.10;64.00
20833;DHT22;56075;51.264;7.150;2023-05-29T15:21:10;27.30;64.10
20833;DHT22;56075;51.264;7.150;2023-05-29T15:23:41;27.40;63.80
20833;DHT22;56075;51.264;7.150;2023-05-29T15:26:14;27.60;63.70
20833;DHT22;56075;51.264;7.150;2023-05-29T15:28:45;27.80;62.90
20833;DHT22;56075;51.264;7.150;2023-05-29T15:31:16;27.80;62.40
20833;DHT22;56075;51.264;7.150;2023-05-29T15:33:48;28.00;62.10
20833;DHT22;56075;51.264;7.150;2023-05-29T15:36:19;28.20;61.00
20833;DHT22;56075;51.264;7.150;2023-05-29T15:38:51;28.40;60.90
20833;DHT22;56075;51.264;7.150;2023-05-29T15:41:23;28.30;60.30
20833;DHT22;56075;51.264;7.150;2023-05-29T15:43:59;28.70;60.20
20833;DHT22;56075;51.264;7.150;2023-05-29T15:46:30;28.60;59.40
20833;DHT22;56075;51.264;7.150;2023-05-29T15:49:02;28.80;59.30
20833;DHT22;56075;51.264;7.150;2023-05-29T15:51:33;29.30;58.90
20833;DHT22;56075;51.264;7.150;2023-05-29T15:54:04;29.60;58.30
20833;DHT22;56075;51.264;7.150;2023-05-29T15:56:36;29.80;57.40
20833;DHT22;56075;51.264;7.150;2023-05-29T15:59:07;30.00;56.60
20833;DHT22;56075;51.264;7.150;2023-05-29T16:01:38;30.40;56.60
20833;DHT22;56075;51.264;7.150;2023-05-29T16:04:09;30.30;55.80
20833;DHT22;56075;51.264;7.150;2023-05-29T16:06:41;30.80;55.80
20833;DHT22;56075;51.264;7.150;2023-05-29T16:09:12;31.10;55.00
20833;DHT22;56075;51.264;7.150;2023-05-29T16:11:44;31.10;55.30
20833;DHT22;56075;51.264;7.150;2023-05-29T16:14:15;31.10;55.10
20833;DHT22;56075;51.264;7.150;2023-05-29T16:16:46;31.50;55.00
20833;DHT22;56075;51.264;7.150;2023-05-29T16:19:17;31.80;54.40
20833;DHT22;56075;51.264;7.150;2023-05-29T16:21:49;32.00;54.30
20833;DHT22;56075;51.264;7.150;2023-05-29T16:24:21;32.40;53.80
20833;DHT22;56075;51.264;7.150;2023-05-29T16:26:52;32.50;53.10
20833;DHT22;56075;51.264;7.150;2023-05-29T16:29:23;32.90;52.60
20833;DHT22;56075;51.264;7.150;2023-05-29T16:31:55;33.00;51.90
20833;DHT22;56075;51.264;7.150;2023-05-29T16:34:26;33.30;51.50
20833;DHT22;56075;51.264;7.150;2023-05-29T16:36:57;33.50;50.70